Time;durP1;ratioP1;P1;durP2;ratioP2;P2;SDS_P1;SDS_P2;PMS_P1;PMS_P2;Temp;Humidity;BMP_temperature;BMP_pressure;BME280_temperature;BME280_humidity;BME280_pressure;Samples;Min_cycle;Max_cycle;Signal;HPM_P1;HPM_P2
2022/01/16 00:04:14;;;;;;;52.00;21.20;;;;;;;0.65;100.00;101504.81;10461984;28;20499;-66
2022/01/16 00:09:17;;;;;;;48.63;21.20;;;;;;;0.81;100.00;101507.25;10460941;28;20231;-63
2022/01/16 00:14:21;;;;;;;52.30;20.27;;;;;;;0.72;100.00;101500.84;10460704;28;20559;-65
2022/01/16 00:19:25;;;;;;;47.87;20.63;;;;;;;0.84;100.00;101511.66;10465120;28;20231;-66
2022/01/16 00:24:28;;;;;;;48.23;20.93;;;;;;;0.62;100.00;101521.66;10501799;28;20579;-68
2022/01/16 00:29:33;;;;;;;49.77;17.77;;;;;;;0.62;100.00;101496.13;10472223;28;20223;-63
2022/01/16 00:34:36;;;;;;;45.20;18.07;;;;;;;0.81;100.00;101508.97;10501341;28;20531;-67
2022/01/16 00:39:39;;;;;;;49.93;18.73;;;;;;;0.39;100.00;101514.56;10501406;28;20216;-61
2022/01/16 00:44:44;;;;;;;43.00;19.90;;;;;;;0.42;100.00;101505.38;10489676;28;20231;-62
2022/01/16 00:49:47;;;;;;;44.30;20.10;;;;;;;0.48;100.00;101492.91;10458965;28;20561;-63
2022/01/16 00:54:51;;;;;;;69.03;32.23;;;;;;;0.44;100.00;101513.97;10460220;28;20232;-67
2022/01/16 00:59:55;;;;;;;45.57;19.00;;;;;;;0.44;100.00;101521.66;10480101;28;20211;-66
2022/01/16 01:04:58;;;;;;;46.40;19.93;;;;;;;0.60;100.00;101536.91;10465059;28;20212;-67
2022/01/16 01:10:02;;;;;;;44.33;19.03;;;;;;;0.34;100.00;101514.34;10472607;28;20270;-69
2022/01/16 01:15:09;;;;;;;43.77;17.90;;;;;;;0.25;100.00;101477.25;10459306;28;20248;-66
2022/01/16 01:20:16;;;;;;;43.07;18.27;;;;;;;0.12;100.00;101487.69;10459349;28;20216;-63
2022/01/16 01:25:19;;;;;;;37.23;17.80;;;;;;;-0.06;100.00;101503.84;10465840;28;20291;-66
2022/01/16 01:30:24;;;;;;;33.40;16.60;;;;;;;0.03;100.00;101466.81;10458997;28;20223;-68
2022/01/16 01:35:28;;;;;;;37.97;18.00;;;;;;;0.07;100.00;101463.63;10458720;28;20278;-67
2022/01/16 01:40:31;;;;;;;38.17;16.37;;;;;;;0.16;100.00;101477.69;10458716;28;20688;-66
2022/01/16 01:51:05;;;;;;;38.87;16.80;;;;;;;0.26;100.00;101338.66;10463680;28;20730;-67
2022/01/16 01:56:11;;;;;;;38.63;17.93;;;;;;;0.25;100.00;101359.84;10499921;28;20220;-63
2022/01/16 02:01:16;;;;;;;39.93;17.77;;;;;;;0.02;100.00;101348.56;10503234;28;20230;-65
2022/01/16 02:06:22;;;;;;;37.87;16.67;;;;;;;-0.12;100.00;101408.25;10507554;28;20240;-65
2022/01/16 02:11:28;;;;;;;40.93;17.00;;;;;;;-0.03;100.00;101421.47;10507293;28;20216;-67
2022/01/16 02:33:11;;;;;;;34.57;14.37;;;;;;;-0.10;100.00;101420.28;10506870;28;20215;-64
2022/01/16 02:38:14;;;;;;;37.80;15.90;;;;;;;-0.41;100.00;101427.22;10506363;28;20515;-66
2022/01/16 02:43:18;;;;;;;35.67;15.13;;;;;;;-0.34;100.00;101436.91;10506303;28;20220;-65
2022/01/16 02:48:21;;;;;;;39.50;16.60;;;;;;;-0.24;100.00;101428.03;10506228;28;20192;-65
2022/01/16 02:53:27;;;;;;;36.97;16.17;;;;;;;-0.13;100.00;101432.00;10506076;28;20193;-64
2022/01/16 02:58:30;;;;;;;36.03;15.33;;;;;;;0.07;100.00;101427.91;10505939;28;20224;-63
2022/01/16 03:03:34;;;;;;;43.70;16.20;;;;;;;-0.09;100.00;101424.56;10505541;28;20629;-64
2022/01/16 03:08:38;;;;;;;38.80;17.63;;;;;;;0.03;100.00;101410.69;10505272;28;20259;-66
2022/01/16 03:13:46;;;;;;;43.27;19.27;;;;;;;-0.09;100.00;101424.56;10504604;28;20230;-63
2022/01/16 03:24:14;;;;;;;42.77;16.53;;;;;;;-0.34;100.00;101428.38;10504784;28;20216;-67
2022/01/16 03:29:17;;;;;;;40.17;19.70;;;;;;;-0.24;100.00;101417.84;10505006;28;20308;-64
2022/01/16 03:34:20;;;;;;;41.20;17.57;;;;;;;-0.35;100.00;101389.28;10504196;28;20216;-66
2022/01/16 03:39:25;;;;;;;36.60;18.63;;;;;;;-0.31;100.00;101405.63;10504265;28;20188;-65
2022/01/16 03:44:29;;;;;;;43.23;18.60;;;;;;;-0.47;100.00;101398.00;10503878;28;20200;-66
2022/01/16 03:49:33;;;;;;;42.03;17.90;;;;;;;-0.48;100.00;101388.56;10503802;28;20625;-66
2022/01/16 03:54:38;;;;;;;48.80;20.40;;;;;;;-0.48;100.00;101383.47;10503510;28;20242;-65
2022/01/16 03:59:41;;;;;;;44.80;18.93;;;;;;;-0.13;100.00;101369.13;10503184;28;20224;-64
2022/01/16 04:04:44;;;;;;;39.17;18.00;;;;;;;-0.29;100.00;101384.47;10503126;28;20220;-65
2022/01/16 04:09:49;;;;;;;51.97;20.87;;;;;;;-0.34;100.00;101370.63;10502557;28;20244;-69
2022/01/16 04:20:16;;;;;;;45.57;18.03;;;;;;;-0.45;100.00;101355.59;10461482;28;20232;-66
2022/01/16 04:25:21;;;;;;;43.77;18.97;;;;;;;-0.36;100.00;101349.28;10460131;28;20303;-66
2022/01/16 04:30:24;;;;;;;44.03;19.03;;;;;;;-0.41;100.00;101340.53;10461179;28;20234;-66
2022/01/16 04:35:28;;;;;;;48.27;20.17;;;;;;;-0.14;100.00;101331.66;10460880;28;20232;-65
2022/01/16 04:40:41;;;;;;;43.73;19.73;;;;;;;-0.26;100.00;101343.81;10460493;28;20207;-65
2022/01/16 04:45:45;;;;;;;48.60;21.50;;;;;;;-0.40;100.00;101341.41;10460326;28;20676;-66
2022/01/16 04:50:48;;;;;;;47.97;20.77;;;;;;;-0.34;100.00;101322.19;10460154;28;20192;-63
2022/01/16 04:55:53;;;;;;;49.30;21.30;;;;;;;-0.24;100.00;101328.59;10459751;28;20646;-67
2022/01/16 05:00:56;;;;;;;50.00;22.87;;;;;;;-0.32;100.00;101327.34;10478134;28;20219;-66
2022/01/16 05:06:00;;;;;;;51.80;22.40;;;;;;;-0.28;100.00;101317.38;10489290;28;20281;-67
2022/01/16 05:11:06;;;;;;;45.60;20.97;;;;;;;-0.32;100.00;101309.50;10464886;28;20219;-65
2022/01/16 05:21:31;;;;;;;51.07;21.17;;;;;;;-0.38;100.00;101297.31;10459296;28;20219;-65
2022/01/16 05:26:36;;;;;;;49.10;21.40;;;;;;;-0.15;100.00;101289.09;10483692;28;20216;-67
2022/01/16 05:31:44;;;;;;;51.53;21.13;;;;;;;-0.12;100.00;101286.69;10500617;28;20630;-66
2022/01/16 05:36:48;;;;;;;51.97;20.43;;;;;;;-0.07;100.00;101269.06;10505217;28;20230;-65
2022/01/16 05:41:53;;;;;;;50.97;22.20;;;;;;;-0.18;100.00;101262.56;10508798;28;20216;-64
2022/01/16 05:46:56;;;;;;;50.57;22.53;;;;;;;-0.15;100.00;101249.97;10508695;28;20229;-65
2022/01/16 05:51:59;;;;;;;53.93;24.63;;;;;;;-0.45;100.00;101251.94;10495318;28;20224;-67
2022/01/16 05:57:05;;;;;;;58.30;24.23;;;;;;;-0.28;100.00;101242.56;10467032;28;20225;-65
2022/01/16 06:02:08;;;;;;;50.97;23.50;;;;;;;-0.35;100.00;101226.09;10466607;28;20213;-66
2022/01/16 06:07:11;;;;;;;48.47;20.47;;;;;;;-0.42;100.00;101229.16;10466225;28;20237;-67
2022/01/16 06:12:16;;;;;;;56.90;24.90;;;;;;;-0.47;100.00;101233.16;10466306;28;20212;-65
2022/01/16 06:17:19;;;;;;;54.80;23.90;;;;;;;-0.50;100.00;101230.44;10466025;28;20221;-65
2022/01/16 06:22:22;;;;;;;52.60;21.40;;;;;;;-0.67;100.00;101226.22;10465636;28;20216;-68
2022/01/16 06:27:27;;;;;;;57.57;25.37;;;;;;;-0.48;100.00;101215.22;10486642;28;20213;-63
2022/01/16 06:32:30;;;;;;;53.07;23.17;;;;;;;-0.53;100.00;101207.38;10470944;28;20224;-66
2022/01/16 06:37:34;;;;;;;72.70;30.47;;;;;;;-0.74;100.00;101191.06;10465280;28;20228;-65
2022/01/16 06:42:38;;;;;;;53.80;26.73;;;;;;;-0.93;100.00;101203.69;10465136;28;20737;-64
2022/01/16 06:47:41;;;;;;;49.53;23.17;;;;;;;-0.91;100.00;101191.03;10463522;28;20213;-63
2022/01/16 06:52:45;;;;;;;50.03;22.37;;;;;;;-0.74;100.00;101192.75;10471056;28;20234;-65
2022/01/16 06:57:52;;;;;;;50.40;23.67;;;;;;;-0.87;100.00;101195.50;10505577;28;20306;-65
2022/01/16 07:02:55;;;;;;;57.87;24.63;;;;;;;-0.96;100.00;101208.66;10505556;28;20222;-64
2022/01/16 07:07:59;;;;;;;54.70;27.00;;;;;;;-0.89;100.00;101210.69;10505121;28;20263;-65
2022/01/16 07:13:04;;;;;;;52.90;23.57;;;;;;;-0.92;100.00;101208.00;10505128;28;20208;-64
2022/01/16 07:18:07;;;;;;;42.20;20.23;;;;;;;-0.94;100.00;101217.25;10504967;28;20234;-67
2022/01/16 07:23:10;;;;;;;41.70;17.57;;;;;;;-1.00;100.00;101219.47;10504858;28;20239;-64
2022/01/16 07:28:16;;;;;;;43.00;17.73;;;;;;;-0.92;100.00;101213.09;10504814;28;20231;-68
2022/01/16 07:33:19;;;;;;;41.23;17.57;;;;;;;-0.80;100.00;101211.16;10504482;28;20232;-67
2022/01/16 07:38:22;;;;;;;36.57;15.73;;;;;;;-0.55;100.00;101208.13;10504256;28;20243;-64
2022/01/16 07:43:27;;;;;;;29.83;14.83;;;;;;;-0.49;100.00;101206.72;10489655;28;20216;-67
2022/01/16 07:48:30;;;;;;;35.40;15.10;;;;;;;-0.43;100.00;101218.91;10462533;28;20235;-65
2022/01/16 07:53:34;;;;;;;36.30;15.17;;;;;;;-0.40;100.00;101219.88;10461986;28;20240;-64
2022/01/16 07:58:38;;;;;;;43.20;17.43;;;;;;;-0.37;100.00;101214.94;10461463;28;20566;-64
2022/01/16 08:03:42;;;;;;;36.63;17.63;;;;;;;-0.48;100.00;101199.94;10461998;28;20235;-66
2022/01/16 08:08:45;;;;;;;41.60;15.43;;;;;;;-0.38;100.00;101200.44;10461532;28;20247;-65
2022/01/16 08:13:50;;;;;;;41.60;16.03;;;;;;;-0.39;100.00;101196.16;10461303;28;20239;-65
2022/01/16 08:18:53;;;;;;;40.13;14.27;;;;;;;-0.31;100.00;101189.72;10461051;28;20228;-66
2022/01/16 08:23:58;;;;;;;33.40;15.23;;;;;;;-0.21;100.00;101186.78;10460727;28;20208;-68
2022/01/16 08:29:03;;;;;;;41.27;14.73;;;;;;;-0.02;100.00;101179.16;10460865;28;20308;-66
2022/01/16 08:34:06;;;;;;;35.00;14.10;;;;;;;0.05;100.00;101164.16;10460726;28;20223;-65
2022/01/16 08:39:09;;;;;;;27.97;12.53;;;;;;;0.08;100.00;101160.06;10460150;28;20311;-66
2022/01/16 08:44:14;;;;;;;31.00;12.53;;;;;;;0.07;100.00;101162.53;10460253;28;20213;-67
2022/01/16 08:49:17;;;;;;;30.60;13.57;;;;;;;0.04;100.00;101150.50;10460104;28;20224;-65
2022/01/16 08:54:20;;;;;;;24.10;12.30;;;;;;;0.03;100.00;101140.25;10460054;28;20213;-64
2022/01/16 08:59:25;;;;;;;36.67;12.93;;;;;;;0.02;100.00;101131.69;10459578;28;20231;-66
2022/01/16 09:04:28;;;;;;;33.23;12.50;;;;;;;0.07;100.00;101121.72;10459424;28;20213;-64
2022/01/16 09:09:31;;;;;;;30.43;11.83;;;;;;;0.16;100.00;101110.22;10458796;28;20240;-66
2022/01/16 09:14:36;;;;;;;24.93;11.63;;;;;;;0.25;100.00;101090.19;10459560;28;20215;-64
2022/01/16 09:19:39;;;;;;;24.47;11.40;;;;;;;0.23;100.00;101102.03;10459064;28;20669;-65
2022/01/16 09:24:43;;;;;;;27.87;12.93;;;;;;;0.33;100.00;101095.63;10458830;28;20215;-67
2022/01/16 09:29:47;;;;;;;32.27;14.43;;;;;;;0.36;100.00;101080.44;10459178;28;20307;-68
2022/01/16 09:34:51;;;;;;;25.83;11.80;;;;;;;0.47;100.00;101063.88;10458888;28;20242;-65
2022/01/16 09:39:58;;;;;;;34.97;12.27;;;;;;;0.49;100.00;101052.94;10458642;28;20238;-65
2022/01/16 09:45:04;;;;;;;30.53;11.97;;;;;;;0.55;100.00;101035.28;10458618;28;20219;-69
2022/01/16 09:50:09;;;;;;;30.07;14.03;;;;;;;0.64;100.00;101047.59;10458551;28;20234;-65
2022/01/16 09:55:13;;;;;;;36.93;14.07;;;;;;;0.67;100.00;101046.03;10458492;28;20554;-64
2022/01/16 10:00:21;;;;;;;31.70;14.17;;;;;;;0.70;100.00;101032.50;10458342;28;20248;-65
2022/01/16 10:05:28;;;;;;;35.17;14.17;;;;;;;0.83;100.00;101027.03;10458243;28;20654;-63
2022/01/16 10:10:33;;;;;;;30.50;12.93;;;;;;;0.83;100.00;101015.16;10458036;28;20732;-65
2022/01/16 10:15:38;;;;;;;30.27;13.90;;;;;;;0.89;100.00;101004.31;10458998;28;20212;-65
2022/01/16 10:20:46;;;;;;;29.80;13.57;;;;;;;0.94;100.00;100980.69;10458624;28;20233;-64
2022/01/16 10:25:50;;;;;;;30.97;12.63;;;;;;;1.04;100.00;100954.66;10465662;28;20557;-65
2022/01/16 10:30:56;;;;;;;37.40;13.90;;;;;;;1.07;100.00;100951.34;10465400;28;20220;-66
2022/01/16 10:35:59;;;;;;;34.30;16.17;;;;;;;1.04;100.00;100961.44;10484055;28;20281;-65
2022/01/16 10:41:03;;;;;;;35.17;14.87;;;;;;;1.06;100.00;100959.81;10470698;28;20575;-66
2022/01/16 10:46:08;;;;;;;32.93;15.17;;;;;;;1.25;100.00;100946.03;10476524;28;20519;-63
2022/01/16 10:51:33;;;;;;;30.60;15.47;;;;;;;1.27;100.00;100946.97;10484451;28;20220;-64
2022/01/16 10:56:37;;;;;;;38.57;15.70;;;;;;;1.17;100.00;100940.66;10488975;28;20261;-69
2022/01/16 11:01:41;;;;;;;35.17;14.47;;;;;;;1.25;100.00;100933.25;10474343;28;20227;-70
2022/01/16 11:07:01;;;;;;;38.93;14.80;;;;;;;1.33;100.00;100922.47;10472394;28;20236;-66
2022/01/16 11:12:06;;;;;;;48.83;19.20;;;;;;;1.37;100.00;100911.53;10495178;28;20295;-66
2022/01/16 11:17:10;;;;;;;34.20;15.73;;;;;;;1.43;100.00;100908.34;10486959;28;20230;-71
2022/01/16 11:22:22;;;;;;;39.07;14.70;;;;;;;1.47;100.00;100893.16;10504273;28;20216;-66
2022/01/16 11:27:25;;;;;;;32.50;15.13;;;;;;;1.58;100.00;100883.28;10463358;28;20231;-64
2022/01/16 11:32:30;;;;;;;59.23;23.83;;;;;;;1.62;100.00;100877.47;10462356;28;20213;-66
2022/01/16 11:37:35;;;;;;;36.43;15.43;;;;;;;1.57;100.00;100868.78;10492158;28;20228;-67
2022/01/16 11:43:15;;;;;;;35.60;15.20;;;;;;;1.53;100.00;100857.56;10478417;28;20219;-65
2022/01/16 11:48:34;;;;;;;34.17;13.97;;;;;;;1.68;100.00;100852.06;10493884;28;20601;-65
2022/01/16 11:54:08;;;;;;;33.37;14.07;;;;;;;1.74;100.00;100836.94;10503465;28;20723;-64
2022/01/16 11:59:15;;;;;;;39.33;15.20;;;;;;;1.65;100.00;100837.50;10503288;28;20220;-66
2022/01/16 12:04:58;;;;;;;41.37;17.57;;;;;;;1.58;100.00;100825.34;10483346;28;20212;-66
2022/01/16 12:10:02;;;;;;;40.70;15.00;;;;;;;1.71;100.00;100803.59;10379353;28;20225;-66
2022/01/16 12:15:07;;;;;;;33.97;14.10;;;;;;;1.73;100.00;100799.38;10379165;28;20210;-63
2022/01/16 12:20:26;;;;;;;29.73;14.03;;;;;;;1.79;100.00;100804.69;10379889;28;20560;-67
2022/01/16 12:25:33;;;;;;;31.23;14.10;;;;;;;1.93;100.00;100793.22;10378506;28;20217;-65
2022/01/16 12:30:39;;;;;;;41.40;17.30;;;;;;;1.89;100.00;100789.69;10385799;28;20304;-66
2022/01/16 12:36:18;;;;;;;27.70;13.90;;;;;;;1.75;100.00;100770.47;10408658;28;20239;-66
2022/01/16 12:41:28;;;;;;;31.93;15.33;;;;;;;1.69;100.00;100772.81;10409881;28;20555;-66
2022/01/16 12:46:35;;;;;;;45.83;21.52;;;;;;;1.72;100.00;100756.72;10380407;28;20435;-67
2022/01/16 12:51:41;;;;;;;37.43;17.33;;;;;;;1.65;100.00;100760.78;10378800;28;20236;-65
2022/01/16 12:56:47;;;;;;;36.00;15.60;;;;;;;1.75;100.00;100751.69;10401623;28;20245;-65
2022/01/16 13:02:11;;;;;;;42.73;17.97;;;;;;;1.70;100.00;100749.00;10383677;28;20217;-69
2022/01/16 13:07:16;;;;;;;43.30;16.97;;;;;;;1.61;100.00;100741.03;10453796;28;20314;-66
2022/01/16 13:12:22;;;;;;;36.03;15.70;;;;;;;1.60;100.00;100731.63;10459416;28;20305;-69
2022/01/16 13:17:25;;;;;;;38.20;17.07;;;;;;;1.60;100.00;100716.28;10458975;28;20232;-68
2022/01/16 13:22:31;;;;;;;35.13;15.63;;;;;;;1.65;100.00;100711.31;10458877;28;20216;-66
2022/01/16 13:27:38;;;;;;;28.73;15.20;;;;;;;1.74;100.00;100694.56;10459000;28;20255;-68
2022/01/16 13:32:43;;;;;;;32.23;14.93;;;;;;;1.64;100.00;100701.91;10460269;28;20217;-70
2022/01/16 13:37:49;;;;;;;30.77;15.20;;;;;;;1.67;100.00;100684.97;10500077;28;20573;-66
2022/01/16 13:43:02;;;;;;;26.53;14.53;;;;;;;1.69;100.00;100682.44;10499834;28;20220;-66
2022/01/16 13:48:08;;;;;;;32.47;16.17;;;;;;;1.67;100.00;100672.19;10500836;28;20235;-68
2022/01/16 13:53:16;;;;;;;42.43;20.60;;;;;;;1.83;100.00;100671.78;10499489;28;20601;-73
2022/01/16 13:58:23;;;;;;;27.97;14.23;;;;;;;1.84;100.00;100657.31;10490147;28;20258;-66
2022/01/16 14:03:28;;;;;;;29.67;14.60;;;;;;;1.64;100.00;100638.81;10494072;28;20208;-66
2022/01/16 14:08:36;;;;;;;32.80;15.50;;;;;;;1.64;100.00;100631.13;10485634;28;20676;-66
2022/01/16 14:13:56;;;;;;;29.93;14.23;;;;;;;1.61;100.00;100638.72;10505969;28;20718;-68
2022/01/16 14:19:09;;;;;;;33.07;14.17;;;;;;;1.60;100.00;100631.88;10494744;28;20614;-69
2022/01/16 14:24:14;;;;;;;34.90;14.90;;;;;;;1.65;100.00;100626.91;10465785;28;20213;-68
2022/01/16 14:29:20;;;;;;;34.67;15.77;;;;;;;1.62;100.00;100617.47;10465448;28;20726;-65
2022/01/16 14:34:24;;;;;;;36.03;16.23;;;;;;;1.59;100.00;100604.56;10465132;28;20550;-65
2022/01/16 14:39:28;;;;;;;34.40;16.17;;;;;;;1.59;100.00;100606.28;10464845;28;20239;-68
2022/01/16 14:44:58;;;;;;;38.60;17.37;;;;;;;1.49;100.00;100600.00;10458173;28;20228;-65
2022/01/16 14:50:02;;;;;;;35.30;16.10;;;;;;;1.58;100.00;100595.16;10466455;28;20605;-66
2022/01/16 14:55:06;;;;;;;43.53;18.83;;;;;;;1.56;100.00;100581.47;10464259;28;20220;-67
2022/01/16 15:00:12;;;;;;;37.27;17.20;;;;;;;1.54;100.00;100567.75;10464070;28;20684;-70
2022/01/16 15:05:15;;;;;;;37.33;15.20;;;;;;;1.51;100.00;100567.69;10463677;28;20222;-67
2022/01/16 15:10:19;;;;;;;38.33;17.33;;;;;;;1.64;100.00;100576.59;10462560;28;20217;-67
2022/01/16 15:15:25;;;;;;;42.57;17.40;;;;;;;1.66;100.00;100567.22;10463590;28;20678;-67
2022/01/16 15:20:33;;;;;;;33.70;16.00;;;;;;;1.51;100.00;100560.00;10465066;28;20238;-67
2022/01/16 15:25:57;;;;;;;51.40;22.50;;;;;;;1.48;100.00;100562.47;10504607;28;20220;-64
2022/01/16 15:31:02;;;;;;;39.97;17.53;;;;;;;1.43;100.00;100552.94;10503820;28;20345;-65
2022/01/16 15:36:06;;;;;;;40.73;17.03;;;;;;;1.42;100.00;100544.38;10504106;28;20257;-69
2022/01/16 15:41:10;;;;;;;41.80;18.20;;;;;;;1.42;100.00;100553.75;10503837;28;20220;-66
2022/01/16 15:46:15;;;;;;;35.07;16.90;;;;;;;1.42;100.00;100558.84;10503818;28;20212;-65
2022/01/16 15:51:24;;;;;;;42.43;17.93;;;;;;;1.45;100.00;100552.13;10503623;28;20223;-63
2022/01/16 15:56:47;;;;;;;39.97;17.80;;;;;;;1.33;100.00;100544.13;10503117;28;20298;-66
2022/01/16 16:01:51;;;;;;;43.70;17.57;;;;;;;1.28;100.00;100544.81;10502888;28;20709;-65
2022/01/16 16:06:55;;;;;;;45.10;18.13;;;;;;;1.27;100.00;100532.84;10502803;28;20625;-65
2022/01/16 16:12:02;;;;;;;47.00;19.97;;;;;;;1.27;100.00;100536.28;10502789;28;20266;-65
2022/01/16 16:17:07;;;;;;;42.03;18.73;;;;;;;1.35;100.00;100532.25;10502347;28;20223;-67
2022/01/16 16:22:10;;;;;;;43.17;18.57;;;;;;;1.28;100.00;100522.66;10502105;28;20308;-66
2022/01/16 16:27:14;;;;;;;51.57;21.87;;;;;;;1.23;100.00;100519.09;10502056;28;20771;-67
2022/01/16 16:32:20;;;;;;;47.57;19.93;;;;;;;1.17;100.00;100506.16;10501653;28;20277;-66
2022/01/16 16:37:23;;;;;;;52.30;23.73;;;;;;;1.22;100.00;100493.50;10500587;28;20226;-64
2022/01/16 16:42:26;;;;;;;52.93;22.53;;;;;;;1.21;100.00;100482.41;10501375;28;20238;-64
2022/01/16 16:47:31;;;;;;;91.70;36.87;;;;;;;1.17;100.00;100467.84;10501292;28;20662;-65
2022/01/16 16:52:34;;;;;;;51.53;21.53;;;;;;;1.13;100.00;100443.00;10501287;28;20311;-67
2022/01/16 16:57:38;;;;;;;60.27;22.73;;;;;;;1.17;100.00;100442.28;10501006;28;20230;-65
2022/01/16 17:02:42;;;;;;;52.40;22.60;;;;;;;1.22;100.00;100433.03;10500700;28;20224;-69
2022/01/16 17:07:46;;;;;;;44.63;20.43;;;;;;;1.29;100.00;100432.41;10500476;28;20678;-66
2022/01/16 17:12:49;;;;;;;48.50;22.10;;;;;;;1.22;100.00;100427.06;10500431;28;20304;-67
2022/01/16 17:17:54;;;;;;;56.63;23.03;;;;;;;1.17;100.00;100424.38;10500509;28;20230;-65
2022/01/16 17:22:58;;;;;;;56.43;22.63;;;;;;;1.25;100.00;100406.69;10500379;28;20220;-67
2022/01/16 17:28:01;;;;;;;52.00;23.87;;;;;;;1.28;100.00;100402.53;10500375;28;20231;-64
2022/01/16 17:33:06;;;;;;;47.60;21.70;;;;;;;1.26;100.00;100399.06;10499546;28;20216;-66
2022/01/16 17:38:09;;;;;;;54.10;22.67;;;;;;;1.38;100.00;100386.59;10500247;28;20299;-67
2022/01/16 17:43:13;;;;;;;51.70;23.73;;;;;;;1.46;100.00;100386.81;10499906;28;20230;-66
2022/01/16 17:48:17;;;;;;;138.90;56.03;;;;;;;1.49;100.00;100379.22;10500290;28;20314;-65
2022/01/16 17:53:20;;;;;;;58.97;22.60;;;;;;;1.58;100.00;100385.47;10500178;28;20227;-66
2022/01/16 17:58:24;;;;;;;50.40;20.90;;;;;;;1.56;100.00;100376.88;10485213;28;20225;-66
2022/01/16 18:03:28;;;;;;;55.13;22.60;;;;;;;1.73;100.00;100372.19;10457973;28;20227;-66
2022/01/16 18:08:31;;;;;;;44.43;20.03;;;;;;;1.97;100.00;100378.78;10457816;28;20225;-68
2022/01/16 18:13:37;;;;;;;46.73;21.13;;;;;;;2.15;100.00;100376.66;10457902;28;20193;-67
2022/01/16 18:18:42;;;;;;;45.27;18.93;;;;;;;2.26;100.00;100370.09;10457926;28;20484;-69
2022/01/16 18:23:45;;;;;;;44.20;20.27;;;;;;;2.52;100.00;100369.81;10457711;28;20529;-63
2022/01/16 18:28:49;;;;;;;34.23;16.33;;;;;;;2.68;100.00;100376.97;10457822;28;20630;-65
2022/01/16 18:33:53;;;;;;;67.27;37.10;;;;;;;2.50;100.00;100361.22;10457646;28;20189;-68
2022/01/16 18:38:56;;;;;;;42.07;18.07;;;;;;;2.63;100.00;100355.53;10457214;28;20406;-65
2022/01/16 18:44:00;;;;;;;43.40;21.57;;;;;;;2.65;100.00;100353.88;10460018;28;20279;-67
2022/01/16 18:49:05;;;;;;;41.20;20.30;;;;;;;2.62;100.00;100325.63;10483255;28;20269;-66
2022/01/16 18:54:08;;;;;;;45.43;18.87;;;;;;;2.58;100.00;100326.41;10464268;28;20303;-63
2022/01/16 18:59:12;;;;;;;40.63;17.77;;;;;;;2.55;100.00;100328.91;10464248;28;20231;-64
2022/01/16 19:04:19;;;;;;;45.03;20.30;;;;;;;2.66;100.00;100327.44;10464009;28;20185;-65
2022/01/16 19:09:24;;;;;;;46.43;20.80;;;;;;;2.72;100.00;100332.69;10463638;28;20689;-64
2022/01/16 19:14:27;;;;;;;46.67;20.83;;;;;;;2.84;100.00;100332.94;10463545;28;20384;-66
2022/01/16 19:19:31;;;;;;;47.97;21.03;;;;;;;2.71;100.00;100329.25;10463286;28;20282;-65
2022/01/16 19:24:35;;;;;;;54.87;25.57;;;;;;;2.60;100.00;100315.38;10463279;28;20227;-65
2022/01/16 19:29:38;;;;;;;51.70;23.73;;;;;;;2.75;100.00;100317.34;10463124;28;20549;-67
2022/01/16 19:34:42;;;;;;;45.53;23.53;;;;;;;2.52;100.00;100327.13;10462824;28;20213;-69
2022/01/16 19:39:46;;;;;;;45.70;17.50;;;;;;;2.54;100.00;100316.94;10462694;28;20242;-67
2022/01/16 19:44:49;;;;;;;54.53;25.83;;;;;;;2.59;100.00;100330.72;10462591;28;20520;-66
2022/01/16 19:49:53;;;;;;;50.60;23.27;;;;;;;2.57;100.00;100330.69;10462484;28;20539;-66
2022/01/16 19:54:59;;;;;;;50.90;23.13;;;;;;;2.60;100.00;100348.66;10461576;28;20597;-67
2022/01/16 20:00:04;;;;;;;47.90;22.53;;;;;;;2.51;100.00;100342.47;10461928;28;20231;-68
2022/01/16 20:05:10;;;;;;;52.33;25.03;;;;;;;2.40;100.00;100346.50;10461736;28;20251;-67
2022/01/16 20:10:14;;;;;;;46.83;23.57;;;;;;;2.36;100.00;100346.41;10461348;28;20702;-64
2022/01/16 20:15:20;;;;;;;43.27;21.67;;;;;;;2.58;100.00;100337.50;10461245;28;20217;-67
2022/01/16 20:20:25;;;;;;;42.70;20.67;;;;;;;2.60;100.00;100346.09;10461054;28;20224;-65
2022/01/16 20:25:29;;;;;;;40.43;20.50;;;;;;;2.48;100.00;100327.91;10460955;28;20209;-66
2022/01/16 20:30:33;;;;;;;41.50;18.87;;;;;;;2.66;100.00;100322.31;10460696;28;20220;-67
2022/01/16 20:35:38;;;;;;;37.63;20.80;;;;;;;2.64;100.00;100323.97;10460283;28;20270;-64
2022/01/16 20:40:48;;;;;;;36.90;18.70;;;;;;;2.63;100.00;100327.34;10460329;28;20226;-66
2022/01/16 20:45:51;;;;;;;41.17;19.23;;;;;;;2.68;100.00;100318.06;10459917;28;20221;-63
2022/01/16 20:51:01;;;;;;;32.77;19.47;;;;;;;2.50;100.00;100320.25;10460175;28;20291;-70
2022/01/16 20:56:05;;;;;;;34.83;17.70;;;;;;;2.62;100.00;100325.63;10459497;28;20247;-66
2022/01/16 21:01:14;;;;;;;33.23;16.07;;;;;;;2.51;100.00;100304.91;10459529;28;20220;-68
2022/01/16 21:06:20;;;;;;;38.00;18.33;;;;;;;2.43;100.00;100310.72;10458503;28;20690;-63
2022/01/16 21:11:25;;;;;;;30.70;15.47;;;;;;;2.45;100.00;100316.75;10459580;28;20225;-66
2022/01/16 21:16:29;;;;;;;26.23;15.23;;;;;;;2.55;100.00;100332.34;10459105;28;20217;-65
2022/01/16 21:21:34;;;;;;;28.80;15.97;;;;;;;2.52;100.00;100313.47;10459297;28;20228;-63
2022/01/16 21:26:37;;;;;;;34.00;18.33;;;;;;;2.43;100.00;100334.63;10458859;28;20542;-64
2022/01/16 21:31:41;;;;;;;33.70;16.20;;;;;;;2.40;100.00;100333.69;10458819;28;20220;-66
2022/01/16 21:36:46;;;;;;;26.80;14.20;;;;;;;2.45;100.00;100332.09;10458801;28;20213;-67
2022/01/16 21:41:50;;;;;;;26.57;14.93;;;;;;;2.22;100.00;100326.47;10458490;28;20653;-68
2022/01/16 21:46:54;;;;;;;28.80;15.80;;;;;;;2.25;100.00;100319.72;10458527;28;20209;-64
2022/01/16 21:51:58;;;;;;;29.43;13.53;;;;;;;2.15;100.00;100301.56;10458529;28;20219;-63
2022/01/16 21:57:02;;;;;;;28.27;13.67;;;;;;;2.11;100.00;100300.63;10494362;28;20277;-64
2022/01/16 22:02:05;;;;;;;30.27;14.20;;;;;;;2.21;100.00;100283.75;10499680;28;20230;-64
2022/01/16 22:07:10;;;;;;;32.23;14.17;;;;;;;2.26;100.00;100290.72;10499750;28;20239;-65
2022/01/16 22:12:20;;;;;;;34.93;14.87;;;;;;;2.23;100.00;100277.00;10499853;28;20239;-66
2022/01/16 22:17:23;;;;;;;33.47;14.97;;;;;;;2.31;100.00;100273.75;10501630;28;20230;-66
2022/01/16 22:22:28;;;;;;;31.33;15.00;;;;;;;2.18;100.00;100260.66;10507085;28;20220;-66
2022/01/16 22:27:31;;;;;;;31.37;13.17;;;;;;;2.26;100.00;100251.47;10507082;28;20677;-65
2022/01/16 22:32:34;;;;;;;27.10;12.67;;;;;;;2.26;100.00;100259.16;10506805;28;20298;-64
2022/01/16 22:37:39;;;;;;;30.83;14.77;;;;;;;2.32;100.00;100249.91;10506602;28;20212;-63
2022/01/16 22:42:43;;;;;;;31.33;15.13;;;;;;;2.40;100.00;100255.16;10506271;28;20227;-64
2022/01/16 22:47:49;;;;;;;30.77;12.90;;;;;;;2.44;100.00;100240.72;10506345;28;20212;-67
2022/01/16 22:52:54;;;;;;;27.57;12.93;;;;;;;2.46;100.00;100239.06;10506217;28;20228;-65
2022/01/16 22:57:57;;;;;;;31.07;12.63;;;;;;;2.46;100.00;100216.03;10506097;28;20533;-65
2022/01/16 23:03:00;;;;;;;26.50;14.97;;;;;;;2.44;100.00;100222.81;10505757;28;20237;-67
2022/01/16 23:08:06;;;;;;;24.10;11.60;;;;;;;2.50;100.00;100203.31;10505203;28;20271;-65
2022/01/16 23:13:09;;;;;;;18.23;10.03;;;;;;;2.60;100.00;100196.66;10505676;28;20206;-67
2022/01/16 23:18:12;;;;;;;18.43;9.77;;;;;;;2.64;100.00;100180.53;10505597;28;20204;-66
2022/01/16 23:23:17;;;;;;;21.77;9.17;;;;;;;2.64;100.00;100167.72;10505110;28;20216;-64
2022/01/16 23:28:21;;;;;;;19.83;9.50;;;;;;;2.77;100.00;100167.09;10503913;28;20709;-66